Time;durP1;ratioP1;P1;durP2;ratioP2;P2;SDS_P1;SDS_P2;PMS_P1;PMS_P2;Temp;Humidity;BMP_temperature;BMP_pressure;BME280_temperature;BME280_humidity;BME280_pressure;Samples;Min_cycle;Max_cycle;Signal;HPM_P1;HPM_P2
2022/02/16 00:01:17;;;;;;;;;0.00;0.00;;;;;;;;2;288087655;288087655;-78
2022/02/16 00:09:33;;;;;;;;;0.00;0.00;;;;;;;;2;261076188;261076188;-78
2022/02/16 00:19:00;;;;;;;;;0.00;0.00;;;;;;;;2;288082850;288082850;-78
2022/02/16 00:27:16;;;;;;;;;0.00;0.00;;;;;;;;2;261075211;261075211;-79
2022/02/16 00:40:03;;;;;;;;;0.00;0.00;;;;;;;;2;288086502;288086502;-79
2022/02/16 00:48:19;;;;;;;;;0.00;0.00;;;;;;;;2;261075203;261075203;-77
2022/02/16 00:57:46;;;;;;;;;0.00;0.00;;;;;;;;2;288083384;288083384;-77
2022/02/16 01:06:02;;;;;;;;;19.50;19.50;;;;;;;;2;261075933;261075933;-78
2022/02/16 01:15:29;;;;;;;;;0.00;0.00;;;;;;;;2;288082137;288082137;-78
2022/02/16 01:23:45;;;;;;;;;0.00;0.00;;;;;;;;2;261078578;261078578;-78
2022/02/16 01:33:12;;;;;;;;;0.00;0.00;;;;;;;;2;288085386;288085386;-78
2022/02/16 01:41:28;;;;;;;;;0.00;0.00;;;;;;;;2;261074528;261074528;-78
2022/02/16 01:50:55;;;;;;;;;0.00;0.00;;;;;;;;2;288086394;288086394;-78
2022/02/16 01:59:11;;;;;;;;;0.00;0.00;;;;;;;;2;261073727;261073727;-78
2022/02/16 02:08:38;;;;;;;;;0.00;0.00;;;;;;;;2;288082779;288082779;-78
2022/02/16 02:16:55;;;;;;;;;0.00;0.00;;;;;;;;2;261077952;261077952;-79
2022/02/16 02:26:23;;;;;;;;;0.00;0.00;;;;;;;;2;288081637;288081637;-78
2022/02/16 02:34:38;;;;;;;;;0.00;0.00;;;;;;;;2;261077332;261077332;-78
2022/02/16 02:44:06;;;;;;;;;0.00;0.00;;;;;;;;2;288084920;288084920;-79
2022/02/16 02:52:21;;;;;;;;;0.00;0.00;;;;;;;;2;261077722;261077722;-79
2022/02/16 03:01:49;;;;;;;;;0.00;0.00;;;;;;;;2;288085889;288085889;-79
2022/02/16 03:10:05;;;;;;;;;0.00;0.00;;;;;;;;2;261074323;261074323;-79
2022/02/16 03:19:32;;;;;;;;;0.00;0.00;;;;;;;;2;288084977;288084977;-79
2022/02/16 03:27:48;;;;;;;;;0.00;0.00;;;;;;;;2;261074989;261074989;-81
2022/02/16 03:37:15;;;;;;;;;0.00;0.00;;;;;;;;2;288084407;288084407;-80
2022/02/16 03:45:31;;;;;;;;;0.00;0.00;;;;;;;;2;261081513;261081513;-80
2022/02/16 03:54:59;;;;;;;;;0.00;0.00;;;;;;;;2;288084322;288084322;-81
2022/02/16 04:03:14;;;;;;;;;0.00;0.00;;;;;;;;2;261074247;261074247;-81
2022/02/16 04:12:41;;;;;;;;;0.00;0.00;;;;;;;;2;288082900;288082900;-81
2022/02/16 04:20:57;;;;;;;;;0.00;0.00;;;;;;;;2;261080910;261080910;-81
2022/02/16 04:30:27;;;;;;;;;0.00;0.00;;;;;;;;2;288084705;288084705;-81
2022/02/16 04:38:42;;;;;;;;;0.00;0.00;;;;;;;;2;261074026;261074026;-81
2022/02/16 04:48:10;;;;;;;;;0.00;0.00;;;;;;;;2;288082205;288082205;-81
2022/02/16 04:56:25;;;;;;;;;0.00;0.00;;;;;;;;2;261076478;261076478;-81
2022/02/16 05:05:53;;;;;;;;;0.00;0.00;;;;;;;;2;288083884;288083884;-81
2022/02/16 05:14:08;;;;;;;;;0.00;0.00;;;;;;;;2;261076960;261076960;-81
2022/02/16 05:23:36;;;;;;;;;0.00;0.00;;;;;;;;2;288081969;288081969;-81
2022/02/16 05:31:51;;;;;;;;;0.00;0.00;;;;;;;;2;261075545;261075545;-81
2022/02/16 05:41:19;;;;;;;;;0.00;0.00;;;;;;;;2;288083079;288083079;-80
2022/02/16 05:49:34;;;;;;;;;0.00;0.00;;;;;;;;2;261078416;261078416;-80
2022/02/16 05:59:02;;;;;;;;;0.00;0.00;;;;;;;;2;288083978;288083978;-80
2022/02/16 06:07:17;;;;;;;;;0.00;0.00;;;;;;;;2;261075010;261075010;-80
2022/02/16 06:16:45;;;;;;;;;0.00;0.00;;;;;;;;2;288085359;288085359;-79
2022/02/16 06:25:02;;;;;;;;;0.00;0.00;;;;;;;;2;261075129;261075129;-79
2022/02/16 06:34:30;;;;;;;;;0.00;0.00;;;;;;;;2;288085913;288085913;-79
2022/02/16 06:42:46;;;;;;;;;0.00;0.00;;;;;;;;2;261077246;261077246;-80
2022/02/16 06:52:13;;;;;;;;;0.00;0.00;;;;;;;;2;288084449;288084449;-80
2022/02/16 07:00:29;;;;;;;;;0.00;0.00;;;;;;;;2;261077374;261077374;-80
2022/02/16 07:09:56;;;;;;;;;0.00;0.00;;;;;;;;2;288084347;288084347;-79
2022/02/16 07:18:11;;;;;;;;;0.00;0.00;;;;;;;;2;261077652;261077652;-81
2022/02/16 07:27:39;;;;;;;;;0.00;0.00;;;;;;;;2;288079276;288079276;-80
2022/02/16 07:35:55;;;;;;;;;0.00;0.00;;;;;;;;2;261076975;261076975;-80
2022/02/16 07:45:22;;;;;;;;;0.00;0.00;;;;;;;;2;288083368;288083368;-80
2022/02/16 07:53:38;;;;;;;;;0.00;0.00;;;;;;;;2;261074704;261074704;-80
2022/02/16 08:03:06;;;;;;;;;0.00;0.00;;;;;;;;2;288085664;288085664;-78
2022/02/16 08:11:22;;;;;;;;;0.00;0.00;;;;;;;;2;261088874;261088874;-77
2022/02/16 08:20:49;;;;;;;;;0.00;0.00;;;;;;;;2;288085371;288085371;-76
2022/02/16 08:29:05;;;;;;;;;0.00;0.00;;;;;;;;2;261079722;261079722;-76
2022/02/16 08:38:33;;;;;;;;;0.00;0.00;;;;;;;;2;288087684;288087684;-77
2022/02/16 08:46:49;;;;;;;;;0.00;0.00;;;;;;;;2;261075965;261075965;-77
2022/02/16 08:56:16;;;;;;;;;0.00;0.00;;;;;;;;2;288085777;288085777;-76
2022/02/16 09:04:32;;;;;;;;;0.00;0.00;;;;;;;;2;261077644;261077644;-76
2022/02/16 09:13:59;;;;;;;;;0.00;0.00;;;;;;;;2;288084802;288084802;-76
2022/02/16 09:22:16;;;;;;;;;0.00;0.00;;;;;;;;2;261078324;261078324;-76
2022/02/16 09:31:43;;;;;;;;;0.00;0.00;;;;;;;;2;288088374;288088374;-78
2022/02/16 09:39:59;;;;;;;;;0.00;0.00;;;;;;;;2;261075366;261075366;-78
2022/02/16 09:49:27;;;;;;;;;0.00;0.00;;;;;;;;2;288087562;288087562;-77
2022/02/16 09:57:43;;;;;;;;;0.00;0.00;;;;;;;;2;261078551;261078551;-77
2022/02/16 10:07:20;;;;;;;;;0.00;0.00;;;;;;;;2;288083410;288083410;-79
2022/02/16 10:15:36;;;;;;;;;0.00;0.00;;;;;;;;2;261077191;261077191;-79
2022/02/16 10:25:10;;;;;;;;;0.00;0.00;;;;;;;;2;288084697;288084697;-78
2022/02/16 10:33:55;;;;;;;;;0.00;0.00;;;;;;;;2;261078439;261078439;-79
2022/02/16 10:43:29;;;;;;;;;0.00;0.00;;;;;;;;2;288088172;288088172;-78
2022/02/16 10:51:46;;;;;;;;;0.00;0.00;;;;;;;;2;261080368;261080368;-80
2022/02/16 11:01:13;;;;;;;;;0.00;0.00;;;;;;;;2;288088262;288088262;-80
2022/02/16 11:09:33;;;;;;;;;0.00;0.00;;;;;;;;2;261077424;261077424;-79
2022/02/16 11:19:03;;;;;;;;;0.00;0.00;;;;;;;;2;288088015;288088015;-79
2022/02/16 11:27:31;;;;;;;;;0.00;0.00;;;;;;;;2;261077323;261077323;-77
2022/02/16 11:37:02;;;;;;;;;0.00;0.00;;;;;;;;2;288086324;288086324;-76
2022/02/16 11:45:20;;;;;;;;;0.00;0.00;;;;;;;;2;261080544;261080544;-76
2022/02/16 11:54:49;;;;;;;;;0.00;0.00;;;;;;;;2;288085863;288085863;-76
2022/02/16 12:03:15;;;;;;;;;0.00;0.00;;;;;;;;2;261075053;261075053;-76
2022/02/16 12:12:44;;;;;;;;;0.00;0.00;;;;;;;;2;288082404;288082404;-76
2022/02/16 12:21:00;;;;;;;;;0.00;0.00;;;;;;;;2;261076909;261076909;-76
2022/02/16 12:30:36;;;;;;;;;0.00;0.00;;;;;;;;2;288085004;288085004;-79
2022/02/16 12:38:53;;;;;;;;;0.00;0.00;;;;;;;;2;261076137;261076137;-80
2022/02/16 12:48:21;;;;;;;;;0.00;0.00;;;;;;;;2;288082080;288082080;-79
2022/02/16 12:56:38;;;;;;;;;0.00;0.00;;;;;;;;2;261075219;261075219;-79
2022/02/16 13:06:06;;;;;;;;;0.00;0.00;;;;;;;;2;288084847;288084847;-77
2022/02/16 13:14:26;;;;;;;;;0.00;0.00;;;;;;;;2;261074840;261074840;-76
2022/02/16 13:24:01;;;;;;;;;0.00;0.00;;;;;;;;2;288084510;288084510;-77
2022/02/16 13:32:26;;;;;;;;;0.00;0.00;;;;;;;;2;261074665;261074665;-77
2022/02/16 13:41:58;;;;;;;;;0.00;0.00;;;;;;;;2;288082688;288082688;-79
2022/02/16 13:50:24;;;;;;;;;0.00;0.00;;;;;;;;2;261076175;261076175;-79
2022/02/16 14:00:00;;;;;;;;;0.00;0.00;;;;;;;;2;288084092;288084092;-79
2022/02/16 14:08:16;;;;;;;;;0.00;0.00;;;;;;;;2;261077867;261077867;-78
2022/02/16 14:17:44;;;;;;;;;0.00;0.00;;;;;;;;2;288082367;288082367;-78
2022/02/16 14:25:59;;;;;;;;;0.00;0.00;;;;;;;;2;261078729;261078729;-78
2022/02/16 14:35:27;;;;;;;;;0.00;0.00;;;;;;;;2;288084415;288084415;-83
2022/02/16 14:43:42;;;;;;;;;0.00;0.00;;;;;;;;2;261077500;261077500;-82
2022/02/16 14:53:10;;;;;;;;;0.00;0.00;;;;;;;;2;288083998;288083998;-82
2022/02/16 15:01:25;;;;;;;;;0.00;0.00;;;;;;;;2;261074986;261074986;-81
2022/02/16 15:10:53;;;;;;;;;0.00;0.00;;;;;;;;2;288086065;288086065;-82
2022/02/16 15:19:09;;;;;;;;;0.00;0.00;;;;;;;;2;261074323;261074323;-82
2022/02/16 15:28:37;;;;;;;;;0.00;0.00;;;;;;;;2;288082576;288082576;-81
2022/02/16 15:36:53;;;;;;;;;0.00;0.00;;;;;;;;2;261077641;261077641;-80
2022/02/16 15:46:20;;;;;;;;;0.00;0.00;;;;;;;;2;288083615;288083615;-80
2022/02/16 15:54:36;;;;;;;;;0.00;0.00;;;;;;;;2;261078701;261078701;-78
2022/02/16 16:04:03;;;;;;;;;0.00;0.00;;;;;;;;2;288083042;288083042;-79
2022/02/16 16:12:19;;;;;;;;;0.00;0.00;;;;;;;;2;261075486;261075486;-84
2022/02/16 16:21:46;;;;;;;;;0.00;0.00;;;;;;;;2;288084585;288084585;-82
2022/02/16 16:30:04;;;;;;;;;0.00;0.00;;;;;;;;2;261076444;261076444;-82
2022/02/16 16:39:31;;;;;;;;;0.00;0.00;;;;;;;;2;288083109;288083109;-83
2022/02/16 16:47:47;;;;;;;;;0.00;0.00;;;;;;;;2;261077274;261077274;-83
2022/02/16 16:57:15;;;;;;;;;0.00;0.00;;;;;;;;2;288081612;288081612;-82
2022/02/16 17:05:31;;;;;;;;;0.00;0.00;;;;;;;;2;261075462;261075462;-81
2022/02/16 17:14:58;;;;;;;;;0.00;0.00;;;;;;;;2;288081935;288081935;-78
2022/02/16 17:23:14;;;;;;;;;0.00;0.00;;;;;;;;2;261074771;261074771;-80
2022/02/16 17:32:41;;;;;;;;;0.00;0.00;;;;;;;;2;288084590;288084590;-78
2022/02/16 17:40:58;;;;;;;;;0.00;0.00;;;;;;;;2;261074550;261074550;-78
2022/02/16 17:50:25;;;;;;;;;0.00;0.00;;;;;;;;2;288084554;288084554;-78
2022/02/16 17:59:03;;;;;;;;;0.00;0.00;;;;;;;;2;261074703;261074703;-81
2022/02/16 18:08:28;;;;;;;;;0.00;0.00;;;;;;;;2;288085584;288085584;-81
2022/02/16 18:16:45;;;;;;;;;0.00;0.00;;;;;;;;2;261076486;261076486;-80
2022/02/16 18:26:12;;;;;;;;;0.00;0.00;;;;;;;;2;288083016;288083016;-81
2022/02/16 18:34:28;;;;;;;;;0.00;0.00;;;;;;;;2;261077905;261077905;-82
2022/02/16 18:43:59;;;;;;;;;0.00;0.00;;;;;;;;2;288080814;288080814;-81
2022/02/16 18:52:16;;;;;;;;;0.00;0.00;;;;;;;;2;261076402;261076402;-82
2022/02/16 19:01:44;;;;;;;;;0.00;0.00;;;;;;;;2;288085292;288085292;-81
2022/02/16 19:09:59;;;;;;;;;0.00;0.00;;;;;;;;2;261078164;261078164;-80
2022/02/16 19:19:27;;;;;;;;;0.00;0.00;;;;;;;;2;288084889;288084889;-81
2022/02/16 19:27:43;;;;;;;;;0.00;0.00;;;;;;;;2;261076409;261076409;-80
2022/02/16 19:37:11;;;;;;;;;0.00;0.00;;;;;;;;2;288085142;288085142;-80
2022/02/16 19:45:26;;;;;;;;;0.00;0.00;;;;;;;;2;261076758;261076758;-81
2022/02/16 19:54:54;;;;;;;;;0.00;0.00;;;;;;;;2;288083789;288083789;-81
2022/02/16 20:03:10;;;;;;;;;0.00;0.00;;;;;;;;2;261076098;261076098;-81
2022/02/16 20:12:37;;;;;;;;;0.00;0.00;;;;;;;;2;288082814;288082814;-80
2022/02/16 20:20:53;;;;;;;;;0.00;0.00;;;;;;;;2;261075298;261075298;-80
2022/02/16 20:30:21;;;;;;;;;0.00;0.00;;;;;;;;2;288084877;288084877;-80
2022/02/16 20:38:36;;;;;;;;;0.00;0.00;;;;;;;;2;261076391;261076391;-78
2022/02/16 20:48:04;;;;;;;;;0.00;0.00;;;;;;;;2;288082705;288082705;-78
2022/02/16 20:56:21;;;;;;;;;0.00;0.00;;;;;;;;2;261077957;261077957;-79
2022/02/16 21:05:49;;;;;;;;;0.00;0.00;;;;;;;;2;288086687;288086687;-80
2022/02/16 21:14:04;;;;;;;;;0.00;0.00;;;;;;;;2;261079318;261079318;-79
2022/02/16 21:23:32;;;;;;;;;0.00;0.00;;;;;;;;2;288084669;288084669;-79
2022/02/16 21:31:47;;;;;;;;;0.00;0.00;;;;;;;;2;261076727;261076727;-79
2022/02/16 21:41:16;;;;;;;;;0.00;0.00;;;;;;;;2;288085845;288085845;-79
2022/02/16 21:49:31;;;;;;;;;0.00;0.00;;;;;;;;2;261074125;261074125;-80
2022/02/16 21:58:59;;;;;;;;;0.00;0.00;;;;;;;;2;288085433;288085433;-79
2022/02/16 22:07:14;;;;;;;;;0.00;0.00;;;;;;;;2;261078790;261078790;-79
2022/02/16 22:16:42;;;;;;;;;0.00;0.00;;;;;;;;2;288083099;288083099;-78
2022/02/16 22:24:58;;;;;;;;;0.00;0.00;;;;;;;;2;261077014;261077014;-77
2022/02/16 22:34:25;;;;;;;;;0.00;0.00;;;;;;;;2;288085661;288085661;-77
2022/02/16 22:42:41;;;;;;;;;0.00;0.00;;;;;;;;2;261074346;261074346;-77
2022/02/16 22:52:08;;;;;;;;;0.00;0.00;;;;;;;;2;288084384;288084384;-74
2022/02/16 23:00:24;;;;;;;;;0.00;0.00;;;;;;;;2;261076342;261076342;-75
2022/02/16 23:18:25;;;;;;;;;0.00;0.00;;;;;;;;2;261075274;261075274;-77
2022/02/16 23:27:53;;;;;;;;;0.00;0.00;;;;;;;;2;288084219;288084219;-76
2022/02/16 23:36:08;;;;;;;;;0.00;0.00;;;;;;;;2;261078013;261078013;-75
2022/02/16 23:45:37;;;;;;;;;0.00;0.00;;;;;;;;2;288084088;288084088;-75
2022/02/16 23:53:52;;;;;;;;;0.00;0.00;;;;;;;;2;261075903;261075903;-76
